Terminal Aerodrome Forecast
Issued by NWS Duluth, MN

Home | Current Version | Previous Version | Graphics & Text | Print | Product List | Glossary On
Versions: 1 2 3 4 5 6 7 8 9 10 11 12 13 14 15 16 17 18 19 20 21 22
326
FTUS43 KDLH 261914 AAA
TAFINL
TAF AMD
KINL 261914Z 2619/2718 29014G25KT P6SM -RA OVC025
     FM270200 30015G25KT P6SM -SHRA OVC015
     FM270900 31014G21KT P6SM VCSH OVC015
     FM271500 33014G25KT P6SM -SHRA OVC015=

USA.gov is the U.S. government's official web portal to all federal, state and local government web resources and services.